Lodi, WI

4:47 PM CDT en Marzo 25, 2017 (GMT -0500)
Toneman3 | | Change Station

Alt 879 ft 43.32 °N, 89.54 °W | Updated 1 minute ago

Nublado
Nublado
36.6 ° F
Sensación térmica 33 ° F
N
4.0
Viento Variable Viento desde ENE
Gusts 4.0 mph

Hoy
Alta -- | Baja -- ° F
--% Posibilidad de precipitaciones
Ayer
Alta -- | Baja -- ° F
Precip. -- pul
Presión 30.04 pul
Visibilidad 4.0 Millas
Nubes Nublado 500 ft
Vientos helados 33 ° F
Punto de rocío 35 ° F
Humedad 95%
Precipitaciones 0.09 pul
Espesor de la nieve No disponible.
6:51 AM 7:16 PM
Creciente menguante, 6% visible
METAR KC29 252135Z AUTO 08012KT 4SM OVC005 05/04 A3004 RMK AO1 T00450040
Presión 30.04 pul
Visibilidad 4.0 Millas
Nubes Nublado 500 ft
Vientos helados 33 ° F
Punto de rocío 35 ° F
Humedad 95%
Precipitaciones 0.09 pul
Espesor de la nieve No disponible.
6:51 AM 7:16 PM
Creciente menguante, 6% visible
METAR KC29 252135Z AUTO 08012KT 4SM OVC005 05/04 A3004 RMK AO1 T00450040

Get Severe Weather Alerts

Thanks for signing up!

Be on the lookout for a verification email in your inbox.

You'll start receiving the daily forecast at 8 AM.

×

10-Day Weather Forecast

Almanac

Astronomía

Mar. 25, 2017 Salida Puesta
Hora real
Crepúsculo civil
Crepúsculo náutico
Crepúsculo astronómico
Luna
Horas de luz
Horas de luz
Tomorrow will be .
, % of the Moon is Illuminated

Extremos de hoy

Máximos del estado Bajos del estado

Community

WunderPhotos

Upload Photos

1,962,540 ¡fotos cargadas!

WunderBlog® & News

Nearby

Calidad del aire

  Calidad del aire Índice AQ Contaminante
Not available.

Grosos de nieve

Estación Profundido Altura

Actividad de terremotos

Ciudad Distance Mag. Tiempo y dato
Magnitud mínima muestra es 2,5.

Actividad de terremotos

Ciudad Distance Mag. Tiempo y dato
Magnitud mínima muestra es 2,5.

Temperaturas de aguas costeras

Lugar Temperatura

Stations

Estaciones meteorológicas cercanas

Ubicación de la estación Temp. Vientos helados Punto de rocío Humedad Viento Precip. Alt Actualizado Tipo
                   

Watches & Warnings

There are currently no watches in effect.